createdAt,value
2019-01-13T09:01:43.500Z,23.46
2019-01-13T09:02:43.425Z,23.38
2019-01-13T09:03:43.447Z,23.35
2019-01-13T09:04:43.383Z,23.27
2019-01-13T09:05:43.386Z,23.34
2019-01-13T09:06:43.248Z,23.31
2019-01-13T09:07:43.172Z,23.38
2019-01-13T09:08:43.094Z,23.39
2019-01-13T09:09:43.024Z,23.40
2019-01-13T09:10:42.955Z,23.46
2019-01-13T09:12:25.963Z,24.00
2019-01-13T09:13:25.912Z,24.10
2019-01-13T09:14:25.887Z,24.16
2019-01-13T09:15:25.800Z,24.26
2019-01-13T09:16:25.790Z,24.37
2019-01-13T09:24:27.184Z,24.49
2019-01-13T09:29:45.211Z,24.98
2019-01-13T09:30:45.150Z,24.41
2019-01-13T09:31:45.017Z,23.86
2019-01-13T09:32:44.910Z,23.47
2019-01-13T09:33:44.802Z,23.38
2019-01-13T09:34:44.680Z,23.22
2019-01-13T09:35:44.574Z,23.23
2019-01-13T09:36:44.468Z,23.14
2019-01-13T09:37:44.330Z,23.02
2019-01-13T09:40:41.179Z,24.94
2019-01-13T09:41:41.123Z,25.72
2019-01-13T09:42:41.047Z,25.16
2019-01-13T09:43:40.957Z,24.69
2019-01-13T09:45:44.747Z,26.11
2019-01-13T09:46:44.726Z,26.80
2019-01-13T09:47:44.648Z,27.02
2019-01-13T09:48:44.589Z,26.25
2019-01-13T09:49:49.890Z,25.71
2019-01-13T09:50:45.482Z,25.24
2019-01-13T09:51:44.414Z,24.92
2019-01-13T09:52:44.326Z,24.60
2019-01-13T12:18:15.397Z,10.56
2019-01-13T12:19:15.340Z,10.51
2019-01-13T12:20:15.331Z,10.52
2019-01-13T12:25:52.542Z,10.56
2019-01-13T12:26:48.597Z,10.56
2019-01-13T12:27:47.603Z,10.40
2019-01-13T12:28:47.807Z,10.30
2019-01-13T12:29:47.557Z,10.18
2019-01-13T12:30:47.546Z,10.01
2019-01-13T12:31:47.535Z,9.96
2019-01-13T12:32:47.550Z,9.82
2019-01-13T12:33:47.512Z,9.66
2019-01-13T12:34:47.513Z,9.58
2019-01-13T12:35:47.489Z,9.50
2019-01-13T12:36:47.498Z,9.50
2019-01-13T12:37:47.492Z,9.45
2019-01-13T12:38:47.458Z,9.34
2019-01-13T12:39:47.451Z,9.32
2019-01-13T12:40:47.440Z,9.30
2019-01-13T12:41:47.425Z,9.23
2019-01-13T12:42:47.433Z,9.20
2019-01-13T12:43:47.402Z,9.15
2019-01-13T12:44:47.400Z,9.16
2019-01-13T12:45:47.380Z,9.13
2019-01-13T12:46:47.370Z,9.09
2019-01-13T12:47:47.379Z,9.05
2019-01-13T12:48:47.348Z,9.10
2019-01-13T12:49:47.336Z,9.01
2019-01-13T12:50:47.327Z,9.02
2019-01-13T12:51:47.314Z,8.94
2019-01-13T12:52:48.513Z,8.91
2019-01-13T12:53:47.301Z,8.93
2019-01-13T12:54:47.281Z,8.96
2019-01-13T12:55:47.281Z,8.96
2019-01-13T12:56:47.259Z,8.99
2019-01-13T12:57:47.279Z,9.02
2019-01-13T12:58:47.237Z,9.02
2019-01-13T12:59:47.226Z,8.94
2019-01-13T13:00:47.215Z,8.91
2019-01-13T13:01:47.215Z,9.02
2019-01-13T13:02:47.221Z,9.05
2019-01-13T13:03:47.182Z,8.99
2019-01-13T13:04:47.171Z,8.99
2019-01-13T13:05:47.160Z,9.05
2019-01-13T13:06:47.150Z,9.02
2019-01-13T13:07:47.137Z,8.99
2019-01-13T13:08:47.158Z,8.96
2019-01-13T13:09:47.115Z,8.97
2019-01-13T13:10:47.103Z,8.88
2019-01-13T13:11:47.093Z,8.99
2019-01-13T13:12:47.083Z,8.91
2019-01-13T13:13:47.090Z,8.96
2019-01-13T13:14:47.060Z,8.93
2019-01-13T13:15:47.051Z,8.86
2019-01-13T13:16:47.038Z,8.88
2019-01-13T13:17:47.026Z,8.91
2019-01-13T13:18:47.041Z,9.01
2019-01-13T13:19:47.006Z,9.01
2019-01-13T13:20:46.994Z,8.96
2019-01-13T13:21:47.028Z,8.93
2019-01-13T13:22:47.009Z,8.94
2019-01-13T13:23:46.959Z,8.96
2019-01-13T13:24:46.988Z,8.87
2019-01-13T13:25:46.940Z,8.90
2019-01-13T13:26:46.928Z,8.90
2019-01-13T13:27:46.914Z,9.04
2019-01-13T13:28:46.905Z,8.87
2019-01-13T13:29:46.912Z,8.91
2019-01-13T13:30:46.882Z,8.94
2019-01-13T13:31:46.873Z,8.94
2019-01-13T13:32:46.860Z,8.97
2019-01-13T13:33:46.849Z,8.93
2019-01-13T13:34:46.861Z,8.91
2019-01-13T13:35:46.830Z,8.96
2019-01-13T13:36:46.815Z,8.87
2019-01-13T13:37:46.804Z,8.94
2019-01-13T13:38:46.793Z,8.97
2019-01-13T13:39:46.801Z,8.94
2019-01-13T13:40:46.771Z,8.90
2019-01-13T13:41:46.762Z,8.93
2019-01-13T13:42:46.750Z,8.93
2019-01-13T13:43:46.737Z,8.90
2019-01-13T13:44:46.749Z,8.93
2019-01-13T13:45:46.721Z,8.96
2019-01-13T13:46:46.710Z,8.93
2019-01-13T13:47:46.697Z,8.93
2019-01-13T13:48:46.683Z,8.91
2019-01-13T13:49:46.697Z,8.93
2019-01-13T13:50:46.661Z,8.93
2019-01-13T13:51:46.657Z,8.88
2019-01-13T13:52:46.638Z,8.94
2019-01-13T13:53:46.628Z,8.94
2019-01-13T13:54:46.698Z,8.93
2019-01-13T13:55:46.608Z,8.93
2019-01-13T13:56:46.593Z,8.91
2019-01-13T13:57:46.584Z,8.93
2019-01-13T13:58:46.574Z,8.93
2019-01-13T13:59:46.585Z,8.91
2019-01-13T14:00:46.553Z,8.90
2019-01-13T14:01:46.540Z,8.96
2019-01-13T14:02:46.528Z,8.90
2019-01-13T14:03:46.524Z,8.94
2019-01-13T14:04:46.529Z,8.96
2019-01-13T14:05:46.499Z,8.96
2019-01-13T14:06:46.487Z,8.94
2019-01-13T14:07:46.471Z,8.91
2019-01-13T14:08:46.463Z,8.96
2019-01-13T14:09:46.478Z,8.91
2019-01-13T14:10:46.442Z,8.93
2019-01-13T14:11:46.431Z,8.93
2019-01-13T14:12:46.419Z,8.91
2019-01-13T14:13:46.405Z,8.94
2019-01-13T14:14:46.398Z,8.88
2019-01-13T14:15:46.408Z,8.91
2019-01-13T14:16:46.434Z,8.94
2019-01-13T14:17:46.366Z,8.90
2019-01-13T14:18:47.538Z,8.91
2019-01-13T14:19:46.339Z,8.94
2019-01-13T14:20:46.361Z,8.93
2019-01-13T14:21:46.319Z,8.97
2019-01-13T14:22:46.308Z,8.93
2019-01-13T14:23:46.296Z,8.96
2019-01-13T14:24:46.285Z,8.96
2019-01-13T14:25:46.274Z,8.96
2019-01-13T14:26:46.283Z,8.90
2019-01-13T14:27:46.251Z,8.88
2019-01-13T14:28:46.241Z,8.91
2019-01-13T14:29:46.237Z,8.93
2019-01-13T14:30:46.244Z,8.94
2019-01-13T14:31:46.210Z,8.93
2019-01-13T14:32:46.196Z,8.93
2019-01-13T14:33:52.659Z,8.97
2019-01-13T14:34:47.174Z,8.94
2019-01-13T14:35:46.197Z,8.93
2019-01-13T14:36:46.154Z,8.93
2019-01-13T14:37:46.140Z,8.93
2019-01-13T14:38:46.129Z,8.88
2019-01-13T14:39:48.885Z,8.90
2019-01-13T14:40:46.132Z,8.93
2019-01-13T14:41:46.099Z,8.91
2019-01-13T14:42:46.086Z,8.93
2019-01-13T14:43:46.075Z,8.91
2019-01-13T14:44:46.080Z,8.91
2019-01-13T14:45:46.052Z,8.94
2019-01-13T14:46:46.062Z,8.93
2019-01-13T14:47:46.032Z,8.91
2019-01-13T14:48:46.021Z,8.96
2019-01-13T14:49:46.019Z,8.91
2019-01-13T14:50:46.023Z,8.88
2019-01-13T14:51:45.990Z,8.90
2019-01-13T14:52:46.932Z,8.90
2019-01-13T14:53:45.970Z,8.90
2019-01-13T14:54:46.934Z,8.90
2019-01-13T14:55:45.964Z,8.88
2019-01-13T14:56:45.932Z,8.84
2019-01-13T14:57:45.921Z,8.94
2019-01-13T14:58:46.013Z,8.93
2019-01-13T14:59:45.898Z,8.83
2019-01-13T15:00:45.909Z,8.83
2019-01-13T15:01:45.877Z,8.91
2019-01-13T15:02:45.864Z,8.75
2019-01-13T15:03:45.854Z,8.87
2019-01-13T15:04:45.844Z,8.90
2019-01-13T15:05:45.853Z,8.78
2019-01-13T15:06:45.823Z,8.78
2019-01-13T15:07:45.812Z,8.83
2019-01-13T15:08:45.798Z,8.79
2019-01-13T15:09:45.794Z,8.75
2019-01-13T15:10:45.797Z,8.79
2019-01-13T15:11:45.766Z,8.86
2019-01-13T15:12:45.769Z,8.86
2019-01-13T15:13:45.746Z,8.84
2019-01-13T15:14:45.733Z,8.76
2019-01-13T15:15:45.743Z,8.83
2019-01-13T15:16:45.712Z,8.76
2019-01-13T15:17:45.703Z,8.91
2019-01-13T15:18:45.687Z,8.87
2019-01-13T15:19:45.677Z,8.87
2019-01-13T15:20:45.685Z,8.84
2019-01-13T15:21:45.657Z,8.76
2019-01-13T15:22:45.653Z,8.86
2019-01-13T15:23:45.639Z,8.87
2019-01-13T15:24:46.722Z,8.84
2019-01-13T15:25:45.630Z,8.88
2019-01-13T15:26:45.604Z,8.76
2019-01-13T15:27:45.596Z,8.73
2019-01-13T15:28:45.579Z,8.71
2019-01-13T15:29:45.568Z,8.87
2019-01-13T15:30:46.055Z,8.84
2019-01-13T15:31:45.552Z,8.79
2019-01-13T15:32:45.532Z,8.90
2019-01-13T15:33:45.538Z,8.88
2019-01-13T15:34:45.513Z,8.84
2019-01-13T15:35:45.520Z,8.86
2019-01-13T15:36:45.490Z,8.84
2019-01-13T15:37:54.567Z,8.81
2019-01-13T15:38:45.467Z,8.76
2019-01-13T15:39:45.457Z,8.83
2019-01-13T15:40:45.466Z,8.86
2019-01-13T15:41:45.433Z,8.81
2019-01-13T15:42:45.423Z,8.76
2019-01-13T15:43:45.412Z,8.83
2019-01-13T15:44:45.400Z,8.84
2019-01-13T15:45:45.410Z,8.76
2019-01-13T15:46:45.378Z,8.78
2019-01-13T15:47:45.367Z,8.81
2019-01-13T15:48:45.362Z,8.78
2019-01-13T15:49:45.346Z,8.75
2019-01-13T15:50:45.353Z,8.76
2019-01-13T15:51:45.324Z,8.79
2019-01-13T15:52:45.313Z,8.72
2019-01-13T15:53:45.300Z,8.72
2019-01-13T15:54:45.292Z,8.72
2019-01-13T15:55:45.298Z,8.79
2019-01-13T15:56:45.268Z,8.73
2019-01-13T15:57:45.257Z,8.73
2019-01-13T15:58:45.244Z,8.73
2019-01-13T15:59:45.235Z,8.75
2019-01-13T16:00:45.248Z,8.72
2019-01-13T16:01:45.212Z,8.78
2019-01-13T16:02:45.201Z,8.76
2019-01-13T16:03:45.189Z,8.83
2019-01-13T16:04:45.179Z,8.83
2019-01-13T16:05:45.166Z,8.72
2019-01-13T16:06:45.178Z,8.76
2019-01-13T16:07:45.147Z,8.72
2019-01-13T16:08:45.137Z,8.72
2019-01-13T16:09:45.122Z,8.76
2019-01-13T16:10:45.112Z,8.72
2019-01-13T16:11:45.121Z,8.71
2019-01-13T16:12:45.089Z,8.81
2019-01-13T16:13:45.078Z,8.72
2019-01-13T16:14:45.071Z,8.86
2019-01-13T16:15:45.058Z,8.78
2019-01-13T16:16:45.065Z,8.78
2019-01-13T16:17:45.035Z,8.83
2019-01-13T16:18:45.027Z,8.84
2019-01-13T16:19:45.013Z,8.84
2019-01-13T16:20:45.010Z,8.84
2019-01-13T16:21:45.015Z,8.73
2019-01-13T16:22:45.007Z,8.73
2019-01-13T16:23:44.972Z,8.83
2019-01-13T16:24:44.958Z,8.87
2019-01-13T16:25:44.946Z,8.88
2019-01-13T16:26:44.959Z,8.86
2019-01-13T16:27:44.930Z,8.83
2019-01-13T16:28:44.914Z,8.84
2019-01-13T16:29:44.903Z,8.81
2019-01-13T16:30:44.889Z,8.83
2019-01-13T16:31:44.881Z,8.79
2019-01-13T16:32:46.605Z,8.88
2019-01-13T16:33:44.857Z,8.79
2019-01-13T16:34:44.845Z,8.83
2019-01-13T16:35:44.838Z,8.79
2019-01-13T16:36:44.824Z,8.87
2019-01-13T16:37:44.833Z,8.83
2019-01-13T16:38:44.822Z,8.75
2019-01-13T16:39:44.789Z,8.78
2019-01-13T16:40:44.778Z,8.84
2019-01-13T16:41:44.769Z,8.75
2019-01-13T16:42:44.757Z,8.78
2019-01-13T16:43:44.766Z,8.86
2019-01-13T16:44:44.737Z,8.86
2019-01-13T16:45:44.729Z,8.84
2019-01-13T16:46:44.713Z,8.79
2019-01-13T16:47:44.704Z,8.84
2019-01-13T16:48:44.710Z,8.75
2019-01-13T16:49:44.679Z,8.76
2019-01-13T16:50:44.669Z,8.83
2019-01-13T16:51:44.660Z,8.84
2019-01-13T16:52:44.647Z,8.79
2019-01-13T16:53:44.656Z,8.79
2019-01-13T16:54:44.627Z,8.81
2019-01-13T16:55:44.613Z,8.73
2019-01-13T16:56:44.603Z,8.73
2019-01-13T16:57:44.594Z,8.71
2019-01-13T16:58:44.602Z,8.71
2019-01-13T16:59:44.570Z,8.78
2019-01-13T17:00:44.565Z,8.69
2019-01-13T17:01:44.547Z,8.75
2019-01-13T17:02:44.536Z,8.73
2019-01-13T17:03:45.103Z,8.73
2019-01-13T17:04:44.513Z,8.71
2019-01-13T17:05:44.506Z,8.75
2019-01-13T17:06:44.491Z,8.72
2019-01-13T17:07:44.480Z,8.71
2019-01-13T17:08:44.492Z,8.71
2019-01-13T17:09:44.461Z,8.71
2019-01-13T17:10:44.451Z,8.72
2019-01-13T17:11:44.448Z,8.72
2019-01-13T17:12:44.433Z,8.73
2019-01-13T17:13:45.560Z,8.71
2019-01-13T17:14:44.403Z,8.68
2019-01-13T17:15:44.400Z,8.66
2019-01-13T17:16:44.388Z,8.73
2019-01-13T17:17:44.388Z,8.73
2019-01-13T17:18:44.382Z,8.73
2019-01-13T17:19:44.354Z,8.66
2019-01-13T17:20:44.339Z,8.72
2019-01-13T17:21:44.325Z,8.71
2019-01-13T17:22:44.314Z,8.75
2019-01-13T17:23:45.111Z,8.72
2019-01-13T17:24:44.291Z,8.68
2019-01-13T17:25:44.302Z,8.73
2019-01-13T17:26:44.269Z,8.72
2019-01-13T17:27:44.258Z,8.71
2019-01-13T17:28:44.247Z,8.72
2019-01-13T17:29:44.258Z,8.73
2019-01-13T17:30:44.226Z,8.71
2019-01-13T17:31:44.214Z,8.62
2019-01-13T17:32:44.203Z,8.63
2019-01-13T17:33:44.191Z,8.65
2019-01-13T17:34:44.228Z,8.71
2019-01-13T17:35:44.171Z,8.65
2019-01-13T17:36:44.158Z,8.72
2019-01-13T17:37:44.148Z,8.73
2019-01-13T17:38:44.139Z,8.72
2019-01-13T17:39:44.125Z,8.71
2019-01-13T17:40:44.137Z,8.72
2019-01-13T17:41:44.105Z,8.69
2019-01-13T17:42:44.092Z,8.71
2019-01-13T17:43:44.083Z,8.72
2019-01-13T17:44:44.072Z,8.65
2019-01-13T17:45:44.080Z,8.72
2019-01-13T17:46:44.049Z,8.71
2019-01-13T17:47:44.037Z,8.72
2019-01-13T17:48:44.026Z,8.73
2019-01-13T17:49:44.016Z,8.73
2019-01-13T17:50:44.027Z,8.73
2019-01-13T17:51:43.994Z,8.72
2019-01-13T17:52:43.982Z,8.66
2019-01-13T17:53:43.971Z,8.76
2019-01-13T17:54:43.959Z,8.72
2019-01-13T17:55:43.948Z,8.75
2019-01-13T17:56:43.961Z,8.72
2019-01-13T17:57:43.927Z,8.76
2019-01-13T17:58:43.915Z,8.72
2019-01-13T17:59:43.905Z,8.69
2019-01-13T18:00:43.894Z,8.75
2019-01-13T18:01:43.902Z,8.69
2019-01-13T18:02:43.872Z,8.73
2019-01-13T18:03:43.862Z,8.79
2019-01-13T18:04:43.856Z,8.75
2019-01-13T18:05:43.838Z,8.78
2019-01-13T18:06:43.851Z,8.83
2019-01-13T18:07:43.817Z,8.79
2019-01-13T18:08:43.804Z,8.79
2019-01-13T18:09:43.794Z,8.79
2019-01-13T18:10:43.785Z,8.79
2019-01-13T18:11:43.792Z,8.76
2019-01-13T18:12:43.764Z,8.84
2019-01-13T18:13:43.748Z,8.76
2019-01-13T18:14:43.740Z,8.75
2019-01-13T18:15:43.728Z,8.81
2019-01-13T18:16:43.736Z,8.75
2019-01-13T18:17:43.704Z,8.72
2019-01-13T18:18:43.695Z,8.76
2019-01-13T18:19:43.685Z,8.72
2019-01-13T18:20:43.672Z,8.71
2019-01-13T18:21:43.687Z,8.68
2019-01-13T18:22:43.652Z,8.71
2019-01-13T18:23:43.638Z,8.63
2019-01-13T18:24:43.634Z,8.71
2019-01-13T18:25:43.618Z,8.65
2019-01-13T18:26:43.610Z,8.66
2019-01-13T18:27:43.616Z,8.60
2019-01-13T18:28:43.585Z,8.62
2019-01-13T18:29:43.576Z,8.58
2019-01-13T18:30:43.565Z,8.58
2019-01-13T18:31:43.552Z,8.55
2019-01-13T18:32:43.562Z,8.51
2019-01-13T18:33:43.530Z,8.53
2019-01-13T18:34:50.103Z,8.53
2019-01-13T18:35:44.510Z,8.54
2019-01-13T18:36:43.496Z,8.48
2019-01-13T18:37:43.537Z,8.51
2019-01-13T18:38:43.475Z,8.47
2019-01-13T18:39:43.464Z,8.47
2019-01-13T18:40:43.456Z,8.47
2019-01-13T18:41:43.445Z,8.37
2019-01-13T18:42:43.450Z,8.29
2019-01-13T18:43:43.418Z,8.32
2019-01-13T18:44:43.407Z,8.28
2019-01-13T18:45:43.398Z,8.36
2019-01-13T18:46:43.385Z,8.35
2019-01-13T18:47:43.402Z,8.42
2019-01-13T18:48:43.362Z,8.33
2019-01-13T18:49:43.354Z,8.36
2019-01-13T18:50:43.340Z,8.47
2019-01-13T18:51:43.331Z,8.44
2019-01-13T18:52:43.321Z,8.45
2019-01-13T18:53:43.329Z,8.47
2019-01-13T18:54:43.296Z,8.36
2019-01-13T18:55:43.288Z,8.53
2019-01-13T18:56:43.274Z,8.48
2019-01-13T18:57:43.262Z,8.54
2019-01-13T18:58:43.276Z,8.60
2019-01-13T18:59:43.240Z,8.57
2019-01-13T19:00:43.234Z,8.66
2019-01-13T19:01:43.219Z,8.69
2019-01-13T19:02:43.210Z,8.65
2019-01-13T19:03:43.221Z,8.66
2019-01-13T19:04:43.191Z,8.58
2019-01-13T19:05:43.175Z,8.63
2019-01-13T19:06:43.165Z,8.66
2019-01-13T19:07:43.155Z,8.62
2019-01-13T19:08:43.163Z,8.66
2019-01-13T19:09:43.131Z,8.65
2019-01-13T19:10:43.122Z,8.73
2019-01-13T19:11:43.110Z,8.65
2019-01-13T19:12:43.098Z,8.69
2019-01-13T19:13:44.087Z,8.68
2019-01-13T19:14:43.078Z,8.63
2019-01-13T19:15:43.066Z,8.72
2019-01-13T19:16:43.058Z,8.65
2019-01-13T19:17:43.044Z,8.71
2019-01-13T19:18:43.033Z,8.62
2019-01-13T19:19:43.065Z,8.69
2019-01-13T19:20:43.011Z,8.63
2019-01-13T19:21:43.001Z,8.57
2019-01-13T19:22:42.992Z,8.63
2019-01-13T19:23:42.980Z,8.54
2019-01-13T19:24:42.967Z,8.57
2019-01-13T19:25:42.976Z,8.55
2019-01-13T19:26:42.947Z,8.53
2019-01-13T19:27:42.934Z,8.54
2019-01-13T19:28:42.926Z,8.54
2019-01-13T19:29:42.913Z,8.51
2019-01-13T19:30:42.921Z,8.54
2019-01-13T19:31:42.892Z,8.54
2019-01-13T19:32:42.880Z,8.51
2019-01-13T19:33:42.869Z,8.48
2019-01-13T19:34:42.863Z,8.39
2019-01-13T19:35:42.873Z,8.47
2019-01-13T19:36:42.837Z,8.50
2019-01-13T19:37:42.828Z,8.60
2019-01-13T19:38:42.814Z,8.45
2019-01-13T19:39:42.805Z,8.45
2019-01-13T19:40:42.860Z,8.45
2019-01-13T19:41:42.782Z,8.47
2019-01-13T19:42:42.773Z,8.48
2019-01-13T19:43:42.760Z,8.51
2019-01-13T19:44:42.750Z,8.54
2019-01-13T19:45:42.763Z,8.51
2019-01-13T19:46:42.728Z,8.63
2019-01-13T19:47:42.717Z,8.50
2019-01-13T19:48:42.707Z,8.62
2019-01-13T19:49:42.698Z,8.62
2019-01-13T19:50:42.687Z,8.54
2019-01-13T19:51:42.697Z,8.62
2019-01-13T19:52:42.662Z,8.68
2019-01-13T19:53:42.651Z,8.62
2019-01-13T19:54:42.647Z,8.62
2019-01-13T19:55:42.629Z,8.73
2019-01-13T19:56:42.618Z,8.71
2019-01-13T19:57:42.630Z,8.75
2019-01-13T19:58:42.598Z,8.76
2019-01-13T19:59:42.586Z,8.75
2019-01-13T20:00:42.580Z,8.83
2019-01-13T20:01:42.571Z,8.84
2019-01-13T20:02:43.132Z,8.72
2019-01-13T20:03:42.541Z,8.84
2019-01-13T20:04:42.536Z,8.66
2019-01-13T20:05:42.521Z,8.44
2019-01-13T20:06:42.510Z,8.10
2019-01-13T20:07:42.540Z,7.94
2019-01-13T20:08:42.489Z,7.79
2019-01-13T20:09:42.476Z,7.63
2019-01-13T20:10:42.466Z,7.55
2019-01-13T20:11:42.457Z,7.45
2019-01-13T20:12:42.444Z,7.38
2019-01-13T20:13:42.454Z,7.38
2019-01-13T20:14:42.424Z,7.34
2019-01-13T20:15:42.413Z,7.23
2019-01-13T20:16:43.300Z,7.32
2019-01-13T20:17:42.395Z,7.34
2019-01-13T20:18:42.403Z,7.37
2019-01-13T20:19:42.368Z,7.34
2019-01-13T20:20:42.357Z,7.35
2019-01-13T20:21:42.348Z,7.35
2019-01-13T20:22:42.335Z,7.32
2019-01-13T20:23:42.392Z,7.38
2019-01-13T20:24:42.316Z,7.40
2019-01-13T20:25:42.302Z,7.41
2019-01-13T20:26:42.292Z,7.42
2019-01-13T20:27:42.281Z,7.41
2019-01-13T20:28:42.273Z,7.38
2019-01-13T20:29:42.280Z,7.42
2019-01-13T20:30:42.252Z,7.35
2019-01-13T20:31:42.236Z,7.24
2019-01-13T20:32:42.225Z,7.35
2019-01-13T20:33:42.245Z,7.35
2019-01-13T20:34:42.247Z,7.29
2019-01-13T20:35:42.193Z,7.19
2019-01-13T20:36:42.184Z,7.20
2019-01-13T20:37:42.176Z,7.20
2019-01-13T20:38:42.163Z,7.20
2019-01-13T20:39:42.154Z,7.17
2019-01-13T20:40:42.162Z,7.19
2019-01-13T20:41:42.127Z,7.20
2019-01-13T20:42:42.126Z,7.23
2019-01-13T20:43:42.107Z,7.17
2019-01-13T20:44:42.095Z,7.23
2019-01-13T20:45:42.104Z,7.20
2019-01-13T20:46:42.072Z,7.31
2019-01-13T20:47:42.062Z,7.29
2019-01-13T20:48:42.093Z,7.32
2019-01-13T20:49:42.040Z,7.32
2019-01-13T20:50:42.048Z,7.35
2019-01-13T20:51:42.018Z,7.29
2019-01-13T20:52:42.006Z,7.16
2019-01-13T20:53:41.998Z,7.24
2019-01-13T20:54:42.017Z,7.41
2019-01-13T20:55:41.993Z,7.32
2019-01-13T20:56:41.964Z,7.32
2019-01-13T20:57:41.951Z,7.40
2019-01-13T20:58:41.941Z,7.40
2019-01-13T20:59:41.930Z,7.38
2019-01-13T21:00:41.944Z,7.38
2019-01-13T21:01:41.908Z,7.35
2019-01-13T21:02:41.896Z,7.32
2019-01-13T21:03:41.887Z,7.35
2019-01-13T21:04:41.875Z,7.40
2019-01-13T21:05:41.889Z,7.44
2019-01-13T21:06:41.854Z,7.35
2019-01-13T21:07:41.844Z,7.38
2019-01-13T21:08:41.832Z,7.37
2019-01-13T21:09:41.821Z,7.37
2019-01-13T21:10:41.809Z,7.32
2019-01-13T21:11:41.819Z,7.38
2019-01-13T21:12:41.792Z,7.37
2019-01-13T21:13:41.777Z,7.24
2019-01-13T21:14:41.767Z,7.31
2019-01-13T21:15:41.763Z,7.38
2019-01-13T21:16:41.764Z,7.24
2019-01-13T21:17:41.735Z,7.31
2019-01-13T21:18:41.725Z,7.31
2019-01-13T21:19:41.711Z,7.31
2019-01-13T21:20:41.705Z,7.29
2019-01-13T21:21:41.713Z,7.19
2019-01-13T21:22:41.678Z,7.42
2019-01-13T21:23:41.668Z,7.17
2019-01-13T21:24:41.656Z,7.32
2019-01-13T21:25:41.645Z,7.35
2019-01-13T21:26:41.655Z,7.26
2019-01-13T21:27:41.623Z,7.22
2019-01-13T21:28:41.612Z,7.27
2019-01-13T21:29:41.604Z,7.31
2019-01-13T21:30:41.590Z,7.31
2019-01-13T21:31:41.608Z,7.22
2019-01-13T21:32:41.568Z,7.38
2019-01-13T21:33:41.558Z,7.17
2019-01-13T21:34:41.547Z,7.37
2019-01-13T21:35:41.537Z,7.37
2019-01-13T21:36:41.532Z,7.31
2019-01-13T21:37:41.539Z,7.38
2019-01-13T21:38:41.504Z,7.37
2019-01-13T21:39:41.493Z,7.40
2019-01-13T21:40:41.486Z,7.34
2019-01-13T21:41:41.473Z,7.23
2019-01-13T21:42:41.482Z,7.31
2019-01-13T21:43:41.453Z,7.38
2019-01-13T21:44:41.441Z,7.38
2019-01-13T21:45:41.428Z,7.35
2019-01-13T21:46:41.417Z,7.31
2019-01-13T21:47:41.450Z,7.19
2019-01-13T21:48:41.395Z,7.29
2019-01-13T21:49:41.385Z,7.20
2019-01-13T21:50:41.396Z,7.17
2019-01-13T21:51:41.364Z,7.27
2019-01-13T21:52:41.351Z,7.20
2019-01-13T21:53:41.366Z,7.27
2019-01-13T21:54:41.331Z,7.27
2019-01-13T21:55:41.319Z,7.31
2019-01-13T21:56:41.308Z,7.29
2019-01-13T21:57:41.301Z,7.20
2019-01-13T21:58:41.308Z,7.22
2019-01-13T21:59:41.279Z,7.23
2019-01-13T22:00:41.265Z,7.20
2019-01-13T22:01:41.255Z,7.20
2019-01-13T22:02:41.247Z,7.20
2019-01-13T22:03:42.149Z,7.22
2019-01-13T22:04:41.222Z,7.23
2019-01-13T22:05:41.503Z,7.20
2019-01-13T22:06:41.202Z,7.20
2019-01-13T22:07:41.194Z,7.20
2019-01-13T22:08:41.197Z,7.19
2019-01-13T22:09:41.170Z,7.20
2019-01-13T22:10:41.165Z,7.16
2019-01-13T22:11:41.145Z,7.12
2019-01-13T22:12:41.134Z,7.16
2019-01-13T22:13:41.143Z,7.20
2019-01-13T22:14:41.112Z,7.19
2019-01-13T22:15:41.103Z,7.19
2019-01-13T22:16:41.096Z,7.23
2019-01-13T22:17:41.079Z,7.20
2019-01-13T22:18:41.094Z,7.19
2019-01-13T22:19:41.058Z,7.20
2019-01-13T22:20:41.050Z,7.17
2019-01-13T22:21:41.036Z,7.20
2019-01-13T22:22:41.026Z,7.20
2019-01-13T22:23:41.034Z,7.20
2019-01-13T22:24:41.005Z,7.31
2019-01-13T22:25:41.001Z,7.31
2019-01-13T22:26:40.981Z,7.22
2019-01-13T22:27:40.970Z,7.19
2019-01-13T22:28:40.985Z,7.22
2019-01-13T22:29:40.949Z,7.23
2019-01-13T22:30:40.938Z,7.22
2019-01-13T22:31:40.927Z,7.20
2019-01-13T22:32:40.916Z,7.19
2019-01-13T22:33:42.657Z,7.09
2019-01-13T22:34:40.895Z,7.23
2019-01-13T22:35:47.975Z,7.15
2019-01-13T22:36:41.873Z,7.09
2019-01-13T22:37:40.860Z,7.12
2019-01-13T22:38:40.877Z,7.04
2019-01-13T22:39:40.839Z,7.22
2019-01-13T22:40:40.830Z,7.05
2019-01-13T22:41:40.820Z,7.08
2019-01-13T22:42:40.806Z,7.12
2019-01-13T22:43:40.795Z,7.09
2019-01-13T22:44:40.807Z,7.08
2019-01-13T22:45:40.774Z,6.99
2019-01-13T22:46:40.762Z,7.02
2019-01-13T22:47:40.750Z,7.05
2019-01-13T22:48:40.742Z,7.02
2019-01-13T22:49:40.750Z,7.09
2019-01-13T22:50:40.720Z,7.04
2019-01-13T22:51:40.708Z,7.07
2019-01-13T22:52:40.696Z,7.05
2019-01-13T22:53:40.686Z,6.99
2019-01-13T22:54:41.162Z,6.99
2019-01-13T22:55:40.664Z,7.05
2019-01-13T22:56:40.654Z,7.01
2019-01-13T22:57:40.643Z,6.98
2019-01-13T22:58:40.654Z,7.05
2019-01-13T22:59:40.619Z,7.02
2019-01-13T23:00:40.631Z,7.05
2019-01-13T23:01:40.598Z,7.07
2019-01-13T23:02:40.587Z,7.07
2019-01-13T23:03:40.576Z,7.12
2019-01-13T23:04:40.590Z,7.12
2019-01-13T23:05:40.556Z,7.16
2019-01-13T23:06:40.545Z,7.17
2019-01-13T23:07:40.533Z,7.04
2019-01-13T23:08:40.523Z,7.09
2019-01-13T23:09:40.511Z,7.08
2019-01-13T23:10:40.524Z,7.19
2019-01-13T23:11:40.488Z,7.07
2019-01-13T23:12:40.478Z,7.07
2019-01-13T23:13:40.467Z,7.13
2019-01-13T23:14:40.456Z,7.17
2019-01-13T23:15:40.464Z,7.12
2019-01-13T23:16:40.434Z,7.15
2019-01-13T23:17:40.422Z,7.13
2019-01-13T23:18:40.411Z,7.08
2019-01-13T23:19:40.401Z,7.19
2019-01-13T23:20:40.417Z,7.15
2019-01-13T23:21:40.381Z,7.05
2019-01-13T23:22:40.368Z,7.13
2019-01-13T23:23:40.357Z,7.09
2019-01-13T23:24:40.346Z,7.02
2019-01-13T23:25:40.334Z,7.09
2019-01-13T23:26:40.347Z,6.99
2019-01-13T23:27:40.313Z,7.02
2019-01-13T23:28:40.303Z,7.07
2019-01-13T23:29:40.291Z,7.02
2019-01-13T23:30:40.281Z,7.08
2019-01-13T23:31:40.291Z,7.07
2019-01-13T23:32:40.258Z,7.12
2019-01-13T23:33:40.246Z,7.08
2019-01-13T23:34:40.236Z,7.16
2019-01-13T23:35:40.228Z,7.08
2019-01-13T23:36:40.236Z,7.05
2019-01-13T23:37:40.204Z,7.12
2019-01-13T23:38:40.196Z,7.12
2019-01-13T23:39:40.186Z,7.09
2019-01-13T23:40:40.806Z,7.08
2019-01-13T23:41:40.183Z,7.13
2019-01-13T23:42:40.151Z,7.08
2019-01-13T23:43:40.138Z,7.09
2019-01-13T23:44:40.129Z,7.04
2019-01-13T23:45:40.124Z,7.09
2019-01-13T23:46:40.125Z,7.04
2019-01-13T23:47:40.095Z,7.07
2019-01-13T23:48:40.082Z,7.02
2019-01-13T23:49:40.072Z,7.05
2019-01-13T23:50:40.061Z,7.05
2019-01-13T23:51:40.073Z,7.07
2019-01-13T23:52:40.040Z,7.09
2019-01-13T23:53:40.030Z,7.05
2019-01-13T23:54:40.021Z,7.01
2019-01-13T23:55:40.009Z,7.08
2019-01-13T23:56:41.670Z,7.12
2019-01-13T23:57:40.007Z,7.07
2019-01-13T23:58:39.974Z,7.13
2019-01-13T23:59:39.963Z,7.16
